Tiempo atmosférico en la estación meteorológica de A Coruña, A Coruña (58 m.)



Fecha
DESCASC
Temp. máxima en grados centígrados (hora)
DESCASC
Temp. mínima en grados centígrados (hora)
DESCASC
Temp. media en grados centígrados
DESCASC
Racha de viento máxima en m/sg (hora)
DESCASC
Velocidad máxima media en intervalos de 10 minutos(hora)
DESCASC
Precipitaciones diarias en mm
DESCASC
Precipitaciones de 00:00 a 06:00 en mm
DESCASC
Precipitaciones de 06:00 a 12:00 en mm
DESCASC
Precipitaciones de 12:00 a 18:00 en mm
DESCASC
Precipitaciones de 18:00 a 24:00 en mm
DESCASC
18-01-2018 13 (15:40) 10 (02:20) 11.5 6.94 (14:40) 3.89 (14:20) 0.6 0 0 0 0.6
17-01-2018 13.5 (13:00) 11 (23:40) 12.3 10.56 (02:10) 6.11 (04:00) 0 0 0 0 0
16-01-2018 14.5 (14:00) 12.3 (07:50) 13.4 11.67 (19:30) 6.39 (02:00) 3.4 1.4 1.4 0 0.6
15-01-2018 13.4 (18:30) 5.9 (05:10) 9.6 15.28 (15:50) 8.61 (17:50) 0.4 0 0 0 0.4
14-01-2018 12.2 (14:20) 5.1 (00:00) 8.6 7.22 (00:30) 4.72 (00:20) 3.2 3.2 0 0 0
13-01-2018 11.5 (16:00) 7.8 (00:00) 9.7 11.67 (18:20) 6.11 (00:10) 14.8 3.6 0.6 1 9.6
12-01-2018 12.5 (15:30) 6.5 (00:00) 9.5 13.61 (20:50) 7.22 (22:50) 0.2 0 0 0 0.2
11-01-2018 12.3 (13:30) 8.8 (00:00) 10.6 24.17 (00:20) 13.06 (00:20) 1.8 1.4 0.4 0 0
10-01-2018 13.2 (12:40) 7.1 (00:00) 10.1 22.78 (12:50) 11.67 (10:10) 18.6 0.2 1 0.6 16.8
09-01-2018 14.5 (15:00) 9.3 (00:00) 11.9 19.44 (10:50) 8.61 (11:00) 2.2 0 0 2.2 0
08-01-2018 12.7 (13:50) 9.2 (00:00) 10.9 7.78 (23:20) 4.72 (00:20) 0 0 0 0 0
07-01-2018 11.6 (23:00) 6.6 (00:00) 9.1 17.78 (16:40) 10.28 (17:40) 6 1.2 2.4 1.2 1.2
06-01-2018 10.5 (15:00) 4.1 (00:00) 7.3 13.61 (04:00) 5.56 (02:00) 6.4 1.4 2 0 3
05-01-2018 14.8 (00:10) 6.7 (00:00) 10.8 16.11 (01:20) 8.06 (03:50) 24.8 19.4 4.6 0.4 0.4
04-01-2018 16.6 (11:40) 14.6 (23:40) 15.6 16.94 (12:40) 9.72 (14:20) 0.8 0 0 0 0.8
03-01-2018 17.1 (14:50) 15.2 (00:00) 16.2 15.28 (22:20) 7.78 (03:00) 3.8 0.2 3 0.4 0.2
02-01-2018 16.8 (13:30) 14.2 (00:00) 15.5 13.33 (10:40) 7.5 (05:50) 3.4 0.8 2 0.4 0.2
01-01-2018 15.3 (14:20) 11.5 (00:00) 13.4 19.17 (14:00) 11.11 (07:50) 0.6 0 0.2 0.2 0.2
31-12-2017 15.7 (00:40) 9 (00:00) 12.3 24.72 (14:30) 12.22 (14:30) 17 0 16.2 0.8 0
30-12-2017 17.8 (13:30) 15.1 (00:00) 16.4 16.67 (14:20) 10.28 (14:20) 0 0 0 0 0
29-12-2017 18 (15:10) 12.6 (00:00) 15.3 15.56 (23:59) 8.89 (23:59) 3 2.8 0.2 0 0
28-12-2017 14.3 (15:20) 9.2 (00:00) 11.8 14.72 (08:10) 8.89 (08:00) 4 1.2 2.8 0 0
27-12-2017 11.9 (01:50) 9.2 (00:00) 10.5 21.39 (01:30) 11.67 (00:20) 10.6 1.2 4.4 2.8 2.2
26-12-2017 14.3 (20:00) 8.9 (00:00) 11.6 23.61 (20:00) 13.61 (21:40) 8.4 0.4 0.8 3.2 4
25-12-2017 13.4 (14:10) 8.2 (00:00) 10.8 16.67 (17:40) 10 (15:00) 5 0 0 4.6 0.4
24-12-2017 15.7 (14:20) 7 (00:00) 11.3 6.11 (17:40) 4.17 (06:10) 0 0 0 0 0

Gráficas

Temp. máximas Temp. mínimas Temp. medias Precipitaciones Rachas de viento máximas Velocidades máximas media en intervalos de 10 minutos

Datos horarios

Fecha y hora oficial Temperatura (ºC) Velocidad del viento (km/h) Dirección del viento Racha (km/h) Dirección de racha Precipitación (mm) Presión (hPa) Tendencia (hPa) Humedad (%)
2018-01-22 23:00:00 13.9 9 Sur 16 Sur 0 1021.7 -0.6 83
2018-01-22 22:00:00 13.7 9 Sudeste 13 Sudeste 0 1021.8 -0.4 88
2018-01-22 21:00:00 14 8 Sur 19 Sur 0 1022.2 0.2 87
2018-01-22 20:00:00 14 13 Sudoeste 26 Sudoeste 0 1022.3 0.7 89
2018-01-22 19:00:00 14 9 Sudoeste 20 Sudoeste 0 1022.2 0.7 88
2018-01-22 18:00:00 14.3 8 Oeste 22 Sudoeste 0 1022 0.5 90
2018-01-22 17:00:00 14.9 10 Sudoeste 23 Sudoeste 0 1021.6 -0.3 86
2018-01-22 16:00:00 14.9 10 Oeste 29 Oeste 0 1021.5 -1.1 88
2018-01-22 15:00:00 16.1 13 Sudoeste 39 Sudoeste 0 1021.5 -1.5 77
2018-01-22 14:00:00 16.2 13 Sudoeste 31 Sudoeste 0 1021.9 -0.5 74
2018-01-22 13:00:00 15.3 17 Sudoeste 33 Sudoeste 0 1022.6 0.7 77
2018-01-22 12:00:00 14.8 15 Sudoeste 29 Oeste 0 1023 1.1 77
2018-01-22 11:00:00 14.3 13 Sudoeste 32 Sudoeste 0 1022.4 0.2 77
2018-01-22 10:00:00 13.4 10 Sur 25 Sudoeste 0 1021.9 -0.4 81
2018-01-22 09:00:00 12.8 13 Sudoeste 25 Sudoeste 0 1021.9 -0.4 84
2018-01-22 08:00:00 12.5 9 Sudoeste 25 Sudoeste 0 1022.2 -0.2 86
2018-01-22 07:00:00 12.5 10 Sudoeste 29 Sudoeste 0 1022.3 0.1 86
2018-01-22 06:00:00 12.2 12 Sudoeste 22 Oeste 0.2 1022.3 0 89
2018-01-22 05:00:00 12.8 10 Sudoeste 31 Sudoeste 0 1022.4 -0.2 82
2018-01-22 04:00:00 12.6 18 Sudoeste 34 Sudoeste 0 1022.2 -0.9 84
2018-01-22 03:00:00 12.6 10 Sudoeste 28 Oeste 0 1022.3 -0.9 86
2018-01-22 02:00:00 12.6 20 Sudoeste 32 Sudoeste 0.6 1022.6 -0.5 88
2018-01-22 01:00:00 12.4 6 Oeste 25 Oeste 0.2 1023.1 0.2 96
2018-01-22 00:00:00 12.4 14 Oeste 31 Oeste 0.4 1023.2 0.3 95
2018-01-21 23:00:00 12.8 14 Oeste 26 Oeste 0.4 1023.1 0.1 93
2018-01-21 22:00:00 13.9 11 Sudoeste 26 Sudoeste 0 1022.9 0.2 84
2018-01-21 21:00:00 14.1 12 Sudoeste 30 Sudoeste 0 1022.9 0.4 81
2018-01-21 20:00:00 14 9 Sudoeste 26 Oeste 0 1023 0.6 82
2018-01-21 19:00:00 14.2 6 Oeste 27 Oeste 0 1022.7 0.2 84
2018-01-21 18:00:00 13.8 15 Oeste 28 Oeste 0 1022.5 -0.3 90
2018-01-21 17:00:00 14.6 9 Oeste 20 Oeste 0 1022.4 -0.9 86
2018-01-21 16:00:00 14.4 14 Oeste 26 Oeste 0 1022.5 -1.4 88
2018-01-21 15:00:00 14.5 10 Oeste 21 Oeste 0 1022.8 -1.3 89
2018-01-21 14:00:00 14.2 9 Oeste 20 Oeste 0 1023.3 -0.3 90
2018-01-21 13:00:00 14.6 9 Oeste 23 Sudoeste 0 1023.9 0.7 84
2018-01-21 12:00:00 14.4 8 Oeste 29 Oeste 0 1024.1 1.3 83
2018-01-21 11:00:00 13.8 11 Oeste 27 Sudoeste 0 1023.6 1.2 85
2018-01-21 10:00:00 13.4 13 Oeste 23 Oeste 0 1023.2 0.9 87
2018-01-21 09:00:00 13.3 10 Oeste 25 Oeste 0 1022.8 0.6 87
2018-01-21 08:00:00 13.4 8 Oeste 23 Sur 0 1022.4 0 86
2018-01-21 07:00:00 13.3 10 Sudoeste 22 Sudoeste 0 1022.3 -0.3 89
2018-01-21 06:00:00 13.2 10 Sudoeste 23 Oeste 0 1022.2 -0.2 90
2018-01-21 05:00:00 13.3 12 Sudoeste 23 Sudoeste 0 1022.4 0 89
2018-01-21 04:00:00 13.2 12 Sudoeste 21 Sudoeste 0 1022.6 0.2 91
2018-01-21 03:00:00 13.3 14 Sudoeste 31 Sudoeste 0 1022.4 0.5 90
2018-01-21 02:00:00 13.4 7 Oeste 24 Sudoeste 0 1022.4 0.7 89
2018-01-21 01:00:00 13.5 13 Sudoeste 27 Sudoeste 0 1022.4 0.6 89
2018-01-21 00:00:00 13.8 17 Sudoeste 33 Oeste 0 1021.9 0.1 85
2018-01-20 23:00:00 13.9 12 Sudoeste 29 Sudoeste 0 1021.7 0.5 84
2018-01-20 22:00:00 13.9 16 Sudoeste 30 Sudoeste 0 1021.8 1.2 83
2018-01-20 21:00:00 13.8 13 Sudoeste 32 Sudoeste 0 1021.8 1.6 84
2018-01-20 20:00:00 14 17 Sudoeste 33 Oeste 0 1021.2 1.4 82
2018-01-20 19:00:00 14.2 16 Sudoeste 33 Sudoeste 0 1020.6 1.3 83
2018-01-20 18:00:00 14.4 15 Sudoeste 34 Oeste 0 1020.2 0.9 81
2018-01-20 17:00:00 14.6 18 Sudoeste 35 Oeste 0 1019.8 0.3 81
2018-01-20 16:00:00 14.4 17 Sudoeste 40 Oeste 0 1019.3 -0.6 84
2018-01-20 15:00:00 14.5 18 Oeste 35 Sudoeste 0 1019.3 -0.6 84
2018-01-20 14:00:00 14.8 19 Sudoeste 35 Oeste 0 1019.5 -0.4 80
2018-01-20 13:00:00 14.7 15 Sudoeste 38 Sudoeste 0 1019.9 0.1 78
2018-01-20 12:00:00 14.9 18 Sudoeste 45 Sudoeste 0 1019.9 0.5 76
2018-01-20 11:00:00 13.4 18 Sudoeste 41 Sudoeste 0 1019.9 0.8 80
2018-01-20 10:00:00 12.7 21 Sudoeste 36 Sudoeste 0 1019.8 0.9 79
2018-01-20 09:00:00 12.3 19 Sudoeste 36 Sudoeste 0 1019.4 0.6 79
2018-01-20 08:00:00 12.1 18 Sudoeste 31 Sudoeste 0 1019.1 0.1 79
2018-01-20 07:00:00 11.6 19 Sudoeste 33 Sudoeste 0 1018.9 -0.7 79
2018-01-20 06:00:00 11.4 19 Sudoeste 33 Sudoeste 0 1018.8 -0.9 79
2018-01-20 05:00:00 11.1 16 Sudoeste 31 Sudoeste 0 1019 -1.1 79
2018-01-20 04:00:00 10.7 17 Sudoeste 25 Sudoeste 0 1019.6 -0.8 80
2018-01-20 03:00:00 10.8 14 Sudoeste 26 Sudoeste 0 1019.7 -0.6 76
2018-01-20 02:00:00 10.9 17 Sudoeste 29 Sudoeste 0 1020.1 -0.5 77
2018-01-20 01:00:00 10.9 11 Sudoeste 19 Sudoeste 0 1020.4 -0.5 74
2018-01-20 00:00:00 11.3 9 Sudoeste 22 Sudoeste 0 1020.3 -0.3 76
2018-01-19 23:00:00 11.9 12 Sudoeste 22 Sudoeste 0 1020.6 -0.1 79
2018-01-19 22:00:00 12 5 Sudoeste 22 Sudoeste 0 1020.9 0.8 76
2018-01-19 21:00:00 12 10 Sudoeste 21 Sudoeste 0 1020.6 0.7 81
2018-01-19 20:00:00 12.1 9 Oeste 14 Sudoeste 0 1020.7 1.1 80
2018-01-19 19:00:00 12.2 8 Oeste 15 Oeste 0 1020.1 0.9 79
2018-01-19 18:00:00 12.5 9 Oeste 18 Oeste 0 1019.9 0.8 75
2018-01-19 17:00:00 12.8 11 Oeste 19 Noroeste 0 1019.6 0.3 75
2018-01-19 16:00:00 13.5 11 Oeste 19 Noroeste 0 1019.2 -0.5 72
2018-01-19 15:00:00 13.9 11 Oeste 18 Oeste 0 1019.1 -0.7 69
2018-01-19 14:00:00 14.2 9 Oeste 14 Oeste 0 1019.3 0.1 68
2018-01-19 13:00:00 13.5 4 Nordeste 22 Noroeste 0 1019.7 0.7 70
2018-01-19 12:00:00 12.7 8 Noroeste 13 Noroeste 0 1019.8 1.3 73
2018-01-19 11:00:00 12.4 7 Norte 18 Oeste 0 1019.2 1.5 71
2018-01-19 10:00:00 11.9 12 Noroeste 26 Noroeste 0 1019 2 68
2018-01-19 09:00:00 11.7 15 Noroeste 32 Noroeste 0 1018.5 2.4 74
2018-01-19 08:00:00 11.7 16 Noroeste 31 Noroeste 0.2 1017.7 2 89
2018-01-19 07:00:00 11.7 12 Noroeste 33 Noroeste 0.8 1017 0.6 96
2018-01-19 06:00:00 12.1 14 Sudoeste 22 Sudoeste 0.4 1016.1 -0.3 97
2018-01-19 05:00:00 12.1 11 Sudoeste 21 Oeste 0 1015.7 -1 97
2018-01-19 04:00:00 12 13 Sudoeste 21 Oeste 0.6 1016.4 -0.5 97
2018-01-19 03:00:00 12 13 Sudoeste 21 Sudoeste 0.4 1016.4 -0.5 96
2018-01-19 02:00:00 12 9 Sudoeste 15 Sudoeste 0 1016.7 -0.3 96
2018-01-19 01:00:00 12.1 8 Sudoeste 13 Sudoeste 0 1016.9 -0.1 95
2018-01-19 00:00:00 12.1 10 Sudoeste 15 Sudoeste 0 1016.9 -0.2 95
2018-01-18 23:00:00 12 9 Sudoeste 18 Sudoeste 0.2 1017 0 95
2018-01-18 22:00:00 12 11 Sudoeste 19 Sudoeste 0.2 1017 0.1 96
2018-01-18 21:00:00 12.1 11 Sudoeste 20 Sudoeste 0.2 1017.1 0.3 94
2018-01-18 20:00:00 12.2 8 Sudoeste 16 Sudoeste 0 1017 0.5 91
2018-01-18 19:00:00 12.3 9 Sudoeste 21 Oeste 0 1016.9 0.2 90
2018-01-18 18:00:00 12.8 9 Oeste 19 Oeste 0 1016.8 -0.2 85
2018-01-18 17:00:00 13 6 Oeste 17 Oeste 0 1016.5 -1.4 82
2018-01-18 16:00:00 12.9 7 Oeste 23 Sudoeste 0 1016.7 -1.5 80
2018-01-18 15:00:00 12.6 12 Sudoeste 25 Oeste 0 1017 -1.7 82
2018-01-18 14:00:00 12.8 9 Oeste 20 Sudoeste 0 1017.9 -0.7 78
2018-01-18 13:00:00 12.4 11 Sudoeste 21 Sudoeste 0 1018.2 -0.3 77
2018-01-18 12:00:00 11.7 11 Sudoeste 21 Sudoeste 0 1018.7 0.3 80
2018-01-18 11:00:00 11.1 8 Sudoeste 18 Sudoeste 0 1018.6 0.3 83
2018-01-18 10:00:00 10.6 12 Sudoeste 19 Sudoeste 0 1018.5 0.3 84
2018-01-18 09:00:00 10.5 12 Sudoeste 21 Sudoeste 0 1018.4 -0.3 83
2018-01-18 08:00:00 10.4 5 Sur 13 Sudoeste 0 1018.3 -0.7 77
2018-01-18 07:00:00 10.2 6 Sur 13 Sur 0 1018.2 -1.3 75
2018-01-18 06:00:00 10.2 6 Sur 14 Sudoeste 0 1018.7 -1.2 74
2018-01-18 05:00:00 10.4 7 Sudoeste 16 Sudoeste 0 1019 -1.6 72
2018-01-18 04:00:00 10.2 5 Sudoeste 12 Sudoeste 0 1019.5 -1.6 71
2018-01-18 03:00:00 10.1 6 Sudoeste 13 Sur 0 1019.9 -1.7 70
2018-01-18 02:00:00 10.1 7 Sur 17 Sudoeste 0 1020.6 -1.4 70
2018-01-18 01:00:00 10.9 8 Sudoeste 16 Sudoeste 0 1021.1 -0.8 68
2018-01-18 00:00:00 11 6 Sudoeste 15 Oeste 0 1021.6 -0.3 69
2018-01-17 23:00:00 11.2 8 Oeste 19 Sudoeste 0 1022 0.4 67
2018-01-17 22:00:00 11.3 11 Oeste 19 Noroeste 0 1021.9 0.1 66
2018-01-17 21:00:00 11.4 6 Oeste 18 Oeste 0 1021.9 0 68
2018-01-17 20:00:00 11.4 5 Oeste 12 Oeste 0 1021.6 -0.6 65
2018-01-17 19:00:00 11.7 4 Oeste 10 Oeste 0 1021.8 -0.8 70
2018-01-17 18:00:00 12 5 Oeste 12 Oeste 0 1021.9 -0.9 67
2018-01-17 17:00:00 12.4 6 Noroeste 15 Oeste 0 1022.2 -1.3 62
2018-01-17 16:00:00 12.5 9 Noroeste 18 Norte 0 1022.6 -1.5 64
2018-01-17 15:00:00 13.1 6 Oeste 22 Noroeste 0 1022.8 -1.5 58
2018-01-17 14:00:00 13.1 8 Oeste 19 Noroeste 0 1023.5 -0.4 58
2018-01-17 13:00:00 13.5 8 Noroeste 15 Norte 0 1024.1 0.7 57
2018-01-17 12:00:00 13 9 Norte 17 Norte 0 1024.3 1.4 63
2018-01-17 11:00:00 12.2 8 Norte 21 Norte 0 1023.9 1.2 71
2018-01-17 10:00:00 11.9 11 Noroeste 26 Noroeste 0 1023.4 1 71
2018-01-17 09:00:00 11.6 11 Noroeste 27 Noroeste 0 1022.9 0.5 72
2018-01-17 08:00:00 11.5 13 Noroeste 28 Noroeste 0 1022.7 0.4 78
2018-01-17 07:00:00 11.6 13 Noroeste 32 Noroeste 0 1022.4 0.1 68
2018-01-17 06:00:00 11.8 18 Noroeste 30 Noroeste 0 1022.4 0.6 62
2018-01-17 05:00:00 11.7 19 Noroeste 33 Noroeste 0 1022.3 0.6 79
2018-01-17 04:00:00 11.9 22 Oeste 36 Oeste 0 1022.3 1 70
2018-01-17 03:00:00 11.9 17 Noroeste 38 Noroeste 0 1021.8 0.8 76
2018-01-17 02:00:00 12.4 19 Oeste 36 Oeste 0 1021.7 0.9 75
2018-01-17 01:00:00 12.4 13 Oeste 34 Oeste 0 1021.3 1 86
2018-01-17 00:00:00 12.7 15 Oeste 37 Sudoeste 0 1021 0.8 88
2018-01-16 23:00:00 12.8 19 Oeste 37 Oeste 0 1020.8 0.9 91
2018-01-16 22:00:00 13 18 Sudoeste 34 Sudoeste 0 1020.3 1.1 88
2018-01-16 21:00:00 12.7 19 Sudoeste 37 Oeste 0.4 1020.2 1.1 93
2018-01-16 20:00:00 12.7 19 Oeste 42 Oeste 0.2 1019.9 1.1 95
2018-01-16 19:00:00 12.9 17 Sudoeste 35 Sudoeste 0 1019.2 0.7 93
2018-01-16 18:00:00 13 17 Oeste 35 Oeste 0 1019.1 0.1 94
2018-01-16 17:00:00 13.7 18 Oeste 35 Sudoeste 0 1018.8 -1 90
2018-01-16 16:00:00 14.2 18 Oeste 39 Sudoeste 0 1018.5 -2.1 87
2018-01-16 15:00:00 14.3 15 Sudoeste 32 Sudoeste 0 1019 -1.8 84
2018-01-16 14:00:00 14.5 13 Sudoeste 32 Oeste 0 1019.8 -0.3 85
2018-01-16 13:00:00 13.8 14 Oeste 25 Oeste 0 1020.6 0.7 89
2018-01-16 12:00:00 13.4 14 Sudoeste 40 Sudoeste 0 1020.8 1.2 88
2018-01-16 11:00:00 13.2 15 Sudoeste 32 Sudoeste 0 1020.1 0.9 88
2018-01-16 10:00:00 12.8 20 Sudoeste 40 Oeste 0 1019.9 1.4 89
2018-01-16 09:00:00 12.3 13 Sudoeste 31 Oeste 0.2 1019.6 0.9 95
2018-01-16 08:00:00 12.3 13 Sudoeste 23 Sudoeste 0.2 1019.2 0.4 95
2018-01-16 07:00:00 12.4 12 Sudoeste 26 Sudoeste 1 1018.5 -0.3 95
2018-01-16 06:00:00 12.5 12 Sudoeste 27 Sudoeste 0.2 1018.7 0.2 95
2018-01-16 05:00:00 12.4 16 Sudoeste 34 Oeste 0.6 1018.8 -0.2 95
2018-01-16 04:00:00 12.8 14 Sudoeste 28 Sudoeste 0.2 1018.8 -0.2 91
2018-01-16 03:00:00 12.8 14 Sudoeste 39 Sudoeste 0 1018.5 -0.2 93
2018-01-16 02:00:00 12.8 23 Sudoeste 39 Sudoeste 0.2 1019 0.9 94
2018-01-16 01:00:00 12.9 15 Sudoeste 28 Oeste 0.2 1019 1.2 95
2018-01-16 00:00:00 12.8 16 Sudoeste 28 Oeste 0.2 1018.7 1.4 94
2018-01-15 23:00:00 12.6 12 Sudoeste 34 Sudoeste 0.2 1018.1 1.3 93
2018-01-15 22:00:00 13.2 18 Sudoeste 41 Sudoeste 0 1017.8 1.4 85
2018-01-15 21:00:00 13.4 22 Sudoeste 51 Sudoeste 0 1017.3 1.1 81
2018-01-15 20:00:00 13.1 24 Sudoeste 50 Sudoeste 0 1016.8 0.8 81
2018-01-15 19:00:00 13.4 23 Sudoeste 49 Sudoeste 0 1016.4 0.5 77
2018-01-15 18:00:00 13.2 27 Sudoeste 51 Sudoeste 0 1016.2 -0.1 76
2018-01-15 17:00:00 13.1 30 Sudoeste 51 Sur 0 1016 -1 75
2018-01-15 16:00:00 12.8 23 Sudoeste 55 Sudoeste 0 1015.9 -2.2 76
2018-01-15 15:00:00 12.6 24 Sudoeste 48 Sudoeste 0 1016.3 -2.5 74
2018-01-15 14:00:00 12 24 Sudoeste 45 Sudoeste 0 1017 -1.5 73
2018-01-15 13:00:00 11.6 13 Sudoeste 41 Sudoeste 0 1018.1 0 73
2018-01-15 12:00:00 10.7 6 Sur 31 Sudoeste 0 1018.8 0.8 75
2018-01-15 11:00:00 9.4 9 Sur 17 Sur 0 1018.5 0.9 78
2018-01-15 10:00:00 8.5 10 Sur 17 Sur 0 1018.1 0.3 80
2018-01-15 09:00:00 8.2 9 Sur 22 Sudoeste 0 1018 0.5 81
2018-01-15 08:00:00 8 8 Sur 17 Sur 0 1017.6 0 82
2018-01-15 07:00:00 7.8 10 Sur 21 Sudoeste 0 1017.8 0.3 80
2018-01-15 06:00:00 7.5 9 Sur 19 Sudoeste 0 1017.5 0.1 78
2018-01-15 05:00:00 6 5 Sur 16 Sudeste 0 1017.6 0 86
2018-01-15 04:00:00 6.8 7 Sur 14 Sur 0 1017.5 -0.3 83
2018-01-15 03:00:00 7 8 Sur 13 Sur 0 1017.4 -0.3 85
2018-01-15 02:00:00 7.8 10 Sudoeste 16 Sudoeste 0 1017.6 -0.1 83
2018-01-15 01:00:00 7.9 11 Sudoeste 15 Sudoeste 0 1017.8 0.9 84
2018-01-15 00:00:00 7.6 7 Sur 15 Sur 0 1017.7 1.2 86
2018-01-14 23:00:00 8.3 5 Sudoeste 13 Sudoeste 0 1017.7 2 85
2018-01-14 22:00:00 8.6 8 Sudoeste 12 Sudoeste 0 1016.9 1.7 85
2018-01-14 21:00:00 8.4 3 Sudoeste 9 Sur 0 1016.5 2 82
2018-01-14 20:00:00 8.8 3 Sur 8 Oeste 0 1015.7 2 80
2018-01-14 19:00:00 8.9 5 Oeste 7 Oeste 0 1015.2 2 79
2018-01-14 18:00:00 9.9 5 Noroeste 9 Norte 0 1014.5 1.7 73
2018-01-14 17:00:00 10.4 4 Noroeste 14 Noroeste 0 1013.7 0.7 69
2018-01-14 16:00:00 11 6 Noroeste 16 Noroeste 0 1013.2 -0.5 70
2018-01-14 15:00:00 11.6 6 Oeste 15 Noroeste 0 1012.8 -0.7 65
2018-01-14 14:00:00 11.9 7 Sur 15 Sur 0 1013 0.2 59
2018-01-14 13:00:00 10.8 5 Sudeste 11 Sudeste 0 1013.7 1.6 71
2018-01-14 12:00:00 9.1 5 Sudeste 14 Sur 0 1013.5 1.8 77
2018-01-14 11:00:00 6.8 8 Sudeste 15 Sudeste 0 1012.8 1.7 83
2018-01-14 10:00:00 5.8 6 Sudeste 19 Sudeste 0 1012.1 1.3 87
2018-01-14 09:00:00 5.2 7 Sudeste 14 Sur 0 1011.7 1 88
2018-01-14 08:00:00 5.2 8 Sudeste 14 Sudeste 0 1011.1 0.2 90
2018-01-14 07:00:00 5.6 5 Sudeste 13 Sur 0 1010.8 -0.1 89
2018-01-14 06:00:00 6 7 Sur 19 Sur 0 1010.7 0.1 87
2018-01-14 05:00:00 6.3 17 Sur 23 Sur 0 1010.9 0.5 87
2018-01-14 04:00:00 7.3 10 Sudeste 16 Sudeste 0 1010.9 0.2 86
2018-01-14 03:00:00 8 8 Sudeste 22 Sudoeste 0.6 1010.6 0.2 85
2018-01-14 02:00:00 8.2 13 Sudoeste 21 Sudoeste 1.6 1010.4 0.1 82
2018-01-14 01:00:00 8.2 10 Sudoeste 26 Sudoeste 1 1010.7 0.8 82
2018-01-14 00:00:00 8.3 12 Sudoeste 22 Sudoeste 0 1010.4 0.6 82
2018-01-13 23:00:00 7.8 11 Sudoeste 25 Sudoeste 1.8 1010.3 0.6 83
2018-01-13 22:00:00 7.9 19 Sudoeste 27 Sudoeste 1.6 1009.9 1.1 83
2018-01-13 21:00:00 8.3 9 Sur 19 Sur 1.4 1009.8 1.9 85
2018-01-13 20:00:00 8.3 7 Sudoeste 23 Sudoeste 2 1009.7 2.1 84
2018-01-13 19:00:00 8.6 9 Sur 42 Sudoeste 2.8 1008.8 1.3 81
2018-01-13 18:00:00 10.6 15 Sudoeste 28 Sudoeste 0.2 1007.9 0.5 72
2018-01-13 17:00:00 11 15 Sudoeste 28 Oeste 0 1007.6 0.2 71
2018-01-13 16:00:00 11.5 18 Sudoeste 29 Sudoeste 0 1007.5 -0.6 67
2018-01-13 15:00:00 10.4 13 Sudoeste 22 Sudoeste 0 1007.4 -0.8 73
2018-01-13 14:00:00 10.2 9 Sudoeste 23 Sudoeste 0 1007.4 -0.6 72
2018-01-13 13:00:00 10.1 16 Sudoeste 28 Oeste 0.8 1008.1 0.9 79
2018-01-13 12:00:00 11 10 Sudoeste 28 Sudoeste 0.4 1008.2 1.3 75
2018-01-13 11:00:00 10.3 14 Sudoeste 21 Sudoeste 0 1008 1.2 83
2018-01-13 10:00:00 10.2 11 Sudoeste 21 Sudoeste 0.2 1007.2 0.9 81
2018-01-13 09:00:00 10 11 Sudoeste 23 Sudoeste 0 1006.9 0.5 84
2018-01-13 08:00:00 9.2 9 Sudoeste 16 Sudoeste 0 1006.8 0 88
2018-01-13 07:00:00 9.2 4 Sur 11 Sur 0 1006.3 -0.6 89
2018-01-13 06:00:00 9.3 6 Sudeste 14 Sudeste 0 1006.4 -0.4 90
2018-01-13 05:00:00 9.6 9 Sudoeste 15 Sudoeste 0.8 1006.8 -0.3 89
2018-01-13 04:00:00 9.9 9 Sudoeste 37 Oeste 1 1006.9 0.3 91
2018-01-13 03:00:00 10.5 18 Sudoeste 33 Sudoeste 1.2 1006.8 -0.2 86
2018-01-13 02:00:00 10.9 14 Sudoeste 30 Sur 0.6 1007.1 -0.7 79
2018-01-13 01:00:00 10.6 15 Sudeste 37 Sur 0 1006.6 -2.5 74
2018-01-13 00:00:00 10.9 21 Sur 40 Sur 0 1007 -1.8 74
2018-01-12 23:00:00 11.1 21 Sur 49 Sudeste 0.2 1007.8 -2.2 73
2018-01-12 22:00:00 11.6 10 Sur 30 Sudeste 0 1009.1 -1.4 69
2018-01-12 21:00:00 11.4 16 Sudeste 49 Sudeste 0 1008.8 -1.5 67
2018-01-12 20:00:00 11.6 18 Sur 32 Sur 0 1010 -0.9 66
2018-01-12 19:00:00 12 11 Sudeste 37 Sur 0 1010.5 -1.7 67
2018-01-12 18:00:00 12.1 17 Sur 42 Sur 0 1010.3 -2.9 66
2018-01-12 17:00:00 12.2 21 Sur 40 Sur 0 1010.9 -3.3 65
2018-01-12 16:00:00 12.4 17 Sur 36 Sur 0 1012.2 -3.6 64
2018-01-12 15:00:00 12 11 Sur 30 Sur 0 1013.2 -3.1 63
2018-01-12 14:00:00 11.2 13 Sudeste 29 Sur 0 1014.2 -2 61
2018-01-12 13:00:00 11.3 9 Sudeste 23 Sudeste 0 1015.8 -0.6 58
2018-01-12 12:00:00 9.4 4 Norte 24 Sur 0 1016.3 -0.3 66
2018-01-12 11:00:00 8.2 17 Sur 25 Sudeste 0 1016.2 -0.2 66
2018-01-12 10:00:00 7.8 19 Sur 27 Sur 0 1016.4 -0.2 67
2018-01-12 09:00:00 7.5 12 Sudeste 20 Sudeste 0 1016.6 -1 70
2018-01-12 08:00:00 7 11 Sudeste 26 Sudeste 0 1016.4 -2 72
2018-01-12 07:00:00 6.7 15 Sudeste 27 Sudeste 0 1016.6 -2.3 73
2018-01-12 06:00:00 6.7 11 Sudeste 19 Sudeste 0 1017.6 -1.6 75
2018-01-12 05:00:00 6.6 8 Sur 19 Sur 0 1018.4 -1.2 77
2018-01-12 04:00:00 6.9 12 Sudeste 18 Sur 0 1018.9 -1.1 76
2018-01-12 03:00:00 7.2 10 Sudeste 15 Sudeste 0 1019.2 -1.3 74
2018-01-12 02:00:00 7.9 7 Sur 14 Sudoeste 0 1019.6 -0.9 71
2018-01-12 01:00:00 8.5 9 Sudoeste 13 Sudoeste 0 1020 -0.2 69
2018-01-12 00:00:00 8.9 10 Sudoeste 16 Sudoeste 0 1020.5 0.3 68
2018-01-11 23:00:00 9.8 10 Sudoeste 14 Sur 0 1020.5 0.2 64
2018-01-11 22:00:00 10 9 Sudoeste 14 Sudoeste 0 1020.2 0.4 66
2018-01-11 21:00:00 10.5 8 Sudoeste 18 Oeste 0 1020.2 0.9 68
2018-01-11 20:00:00 10.7 12 Oeste 20 Noroeste 0 1020.3 1.2 66
2018-01-11 19:00:00 10.7 8 Oeste 25 Oeste 0 1019.8 0.8 67
2018-01-11 18:00:00 11.1 15 Oeste 28 Oeste 0 1019.3 0.7 65
2018-01-11 17:00:00 11.3 16 Noroeste 33 Oeste 0 1019.1 0.5 63
2018-01-11 16:00:00 11.6 19 Oeste 32 Noroeste 0 1019 0.2 62
2018-01-11 15:00:00 11.8 21 Oeste 35 Oeste 0 1018.6 -0.1 60
2018-01-11 14:00:00 11.8 21 Noroeste 46 Noroeste 0 1018.6 0.6 60
2018-01-11 13:00:00 11.8 21 Noroeste 41 Oeste 0 1018.8 1.2 59
2018-01-11 12:00:00 10.9 18 Oeste 37 Oeste 0 1018.7 1.8 72
2018-01-11 11:00:00 9.8 22 Oeste 48 Oeste 0 1018 1.9 76
2018-01-11 10:00:00 9.9 24 Noroeste 44 Noroeste 0 1017.6 2.4 66
2018-01-11 09:00:00 9.5 30 Oeste 54 Oeste 0 1016.9 2.6 74
2018-01-11 08:00:00 9.8 25 Noroeste 51 Oeste 0.2 1016.1 2 67
2018-01-11 07:00:00 9 24 Oeste 52 Oeste 0.2 1015.2 1.1 75
2018-01-11 06:00:00 9.6 30 Noroeste 56 Noroeste 0.2 1014.3 1.1 68
2018-01-11 05:00:00 9.4 27 Oeste 48 Oeste 0 1014.1 0.9 72
2018-01-11 04:00:00 9.2 28 Noroeste 62 Noroeste 0.6 1014.1 1.1 75
2018-01-11 03:00:00 9.1 31 Oeste 55 Oeste 0.2 1013.2 0.9 78
2018-01-11 02:00:00 9.2 24 Oeste 64 Noroeste 0.2 1013.2 2.1 69
2018-01-11 01:00:00 9.5 32 Oeste 87 Oeste 0.2 1013 1.4 68
2018-01-11 00:00:00 10 33 Oeste 59 Oeste 0 1012.3 1.4 68
2018-01-10 23:00:00 8.9 30 Oeste 54 Oeste 12 1011.1 0.6 88
2018-01-10 22:00:00 8.9 23 Sudoeste 36 Sudoeste 0 1011.6 1.7 83
2018-01-10 21:00:00 8.6 19 Sudoeste 42 Sudoeste 2 1010.9 1.2 84
2018-01-10 20:00:00 8.9 19 Sudoeste 58 Oeste 1.4 1010.5 1.9 83
2018-01-10 19:00:00 10.3 27 Oeste 68 Oeste 1.4 1009.9 2.4 70
2018-01-10 18:00:00 10.3 27 Oeste 68 Oeste 0 1009.7 3.4 65
2018-01-10 17:00:00 11.8 39 Oeste 68 Oeste 0 1008.6 3.1 60
2018-01-10 16:00:00 12.1 37 Oeste 70 Oeste 0 1007.5 2.2 52
2018-01-10 15:00:00 11.8 37 Oeste 67 Sudoeste 0 1006.3 1.5 64
2018-01-10 14:00:00 11.2 31 Sudoeste 58 Oeste 0 1005.5 2.9 72
2018-01-10 13:00:00 10.1 36 Sudoeste 82 Oeste 0.6 1005.3 4.3 72
2018-01-10 12:00:00 12.2 36 Oeste 75 Oeste 0 1004.8 3.8 67
2018-01-10 11:00:00 11.6 33 Sudoeste 70 Sudoeste 0.2 1002.6 0.4 81
2018-01-10 10:00:00 11.7 26 Sudoeste 53 Sur 0.6 1001 -2.4 82
2018-01-10 09:00:00 11.3 22 Sur 50 Sur 0.2 1001 -3.4 85
2018-01-10 08:00:00 10.8 19 Sur 37 Sudoeste 0 1002.2 -3.3 83
2018-01-10 07:00:00 10.2 16 Sur 36 Sur 0 1003.4 -2.6 85
2018-01-10 06:00:00 9.4 14 Sur 30 Sur 0 1004.4 -1.5 87
2018-01-10 05:00:00 9.2 7 Sudeste 15 Sur 0 1005.5 -0.5 85
2018-01-10 04:00:00 9.6 9 Sur 17 Sudoeste 0 1006 -0.2 83
2018-01-10 03:00:00 9.9 9 Sur 20 Sur 0 1005.9 -0.3 81
2018-01-10 02:00:00 10.3 16 Sudoeste 25 Sudoeste 0 1006 0.2 80
2018-01-10 01:00:00 10.5 17 Sudoeste 28 Oeste 0.2 1006.2 0.8 83
2018-01-10 00:00:00 10.6 17 Sudoeste 28 Sudoeste 0 1006.2 1.4 83
2018-01-09 23:00:00 11 18 Sudoeste 28 Sudoeste 0 1005.8 1.6 83
2018-01-09 22:00:00 11.1 14 Sudoeste 32 Sudoeste 0 1005.4 2.2 82
2018-01-09 21:00:00 11.6 16 Sudoeste 31 Sudoeste 0 1004.8 2.6 82
2018-01-09 20:00:00 12 18 Sudoeste 32 Sudoeste 0 1004.2 2.7 86
2018-01-09 19:00:00 12.2 17 Sudoeste 41 Sudoeste 0 1003.2 2.4 84
2018-01-09 18:00:00 12.5 19 Sudoeste 49 Sudoeste 0.2 1002.2 1.5 83
2018-01-09 17:00:00 13.3 17 Sudoeste 36 Sudoeste 0 1001.5 0.9 74
2018-01-09 16:00:00 13.7 18 Oeste 41 Oeste 0 1000.8 0 74
2018-01-09 15:00:00 14.5 16 Sudoeste 34 Sudoeste 0 1000.7 0.6 74
2018-01-09 14:00:00 13 12 Sudoeste 26 Sudoeste 0 1000.6 2.5 87
2018-01-09 13:00:00 11 16 Sudoeste 41 Sur 2 1000.8 2.5 89
2018-01-09 12:00:00 11.2 26 Sur 64 Sur 0 1000.1 1.7 81
2018-01-09 11:00:00 10.8 31 Sur 70 Sur 0 998.1 -0.9 80
2018-01-09 10:00:00 10.3 23 Sur 60 Sudoeste 0 998.3 -0.4 82
2018-01-09 09:00:00 9.8 18 Sur 58 Sur 0 998.4 -1.4 83
2018-01-09 08:00:00 9.7 22 Sur 53 Sur 0 999 -2.2 77
2018-01-09 07:00:00 9.6 15 Sur 49 Sur 0 998.7 -3.7 75
2018-01-09 06:00:00 9.3 18 Sur 42 Sur 0 999.8 -2.3 66
2018-01-09 05:00:00 9.4 20 Sur 43 Sur 0 1001.2 -0.9 66
2018-01-09 04:00:00 9.6 21 Sur 53 Sudoeste 0 1002.4 -1 70
2018-01-09 03:00:00 9.8 23 Sur 48 Sudoeste 0 1002.1 -1.6 74
2018-01-09 02:00:00 10.1 23 Sudoeste 42 Sur 0 1002.1 -2.6 70
2018-01-09 01:00:00 10.2 6 Sur 26 Sur 0 1003.4 -1.6 77
2018-01-09 00:00:00 10.4 15 Sudeste 28 Sudoeste 0 1003.7 -1.4 78
2018-01-08 23:00:00 11.1 8 Sudeste 20 Sudeste 0 1004.7 -0.5 82
2018-01-08 22:00:00 11.3 12 Sudoeste 25 Sur 0 1005 0.4 84
2018-01-08 21:00:00 11.5 4 Sur 19 Sudoeste 0 1005.1 0.2 83
2018-01-08 20:00:00 11.6 8 Sur 18 Sudoeste 0 1005.2 0.5 85
2018-01-08 19:00:00 11.7 6 Sudoeste 19 Sudoeste 0 1004.6 0.1 87
2018-01-08 18:00:00 12.2 10 Sudoeste 19 Sudoeste 0 1004.9 0.2 92
2018-01-08 17:00:00 12.6 12 Oeste 18 Oeste 0 1004.7 0.1 92
2018-01-08 16:00:00 12.4 6 Oeste 14 Oeste 0 1004.5 -0.5 91
2018-01-08 15:00:00 12.3 9 Oeste 19 Sudoeste 0 1004.7 -0.4 89
2018-01-08 14:00:00 12.7 5 Oeste 13 Oeste 0 1004.6 -0.4 86
2018-01-08 13:00:00 11.5 4 Este 15 Sur 0 1005 -0.1 86
2018-01-08 12:00:00 10.8 11 Sudeste 17 Sudeste 0 1005.1 1 87
2018-01-08 11:00:00 10.2 5 Sudeste 8 Sudeste 0 1005 1.4 92
2018-01-08 10:00:00 9.5 3 Este 10 Oeste 0 1005.1 2.1 93
2018-01-08 09:00:00 9.6 6 Sudoeste 7 Sudoeste 0 1004.1 1.4 94
2018-01-08 08:00:00 9.2 4 Sur 10 Sur 0 1003.6 0.9 94
2018-01-08 07:00:00 9.4 6 Sudeste 13 Sur 0 1003 0.6 94
2018-01-08 06:00:00 9.8 6 Sur 9 Sur 0 1002.7 1.4 94
2018-01-08 05:00:00 9.9 5 Noroeste 7 Este 0 1002.7 1.7 93
2018-01-08 04:00:00 10.4 5 Este 9 Norte 0 1002.4 1.2 94
2018-01-08 03:00:00 10.8 6 Nordeste 13 Nordeste 0 1001.3 0.3 95
2018-01-08 02:00:00 10.7 8 Nordeste 19 Norte 0 1001 0.2 95
2018-01-08 01:00:00 10.8 14 Norte 26 Nordeste 0 1001.2 0.5 95
2018-01-08 00:00:00 11.1 17 Norte 40 Norte 0.2 1001 0.1 95
2018-01-07 23:00:00 11.5 22 Nordeste 50 Norte 0 1000.8 0.3 92
2018-01-07 22:00:00 11.2 31 Norte 49 Norte 0 1000.7 0.7 92
2018-01-07 21:00:00 10.4 25 Norte 52 Norte 0.2 1000.9 0.8 93
2018-01-07 20:00:00 10.3 36 Norte 54 Norte 0 1000.5 0.6 90
2018-01-07 19:00:00 10 35 Norte 55 Norte 0.8 1000 0.3 89
2018-01-07 18:00:00 9.8 29 Norte 58 Norte 0.4 1000.1 0.2 89
2018-01-07 17:00:00 9.8 26 Nordeste 64 Norte 0.4 999.9 -0.2 90
2018-01-07 16:00:00 9.7 36 Norte 60 Nordeste 0.4 999.7 -1.1 90
2018-01-07 15:00:00 10.8 29 Norte 53 Norte 0 999.9 -1.1 76
2018-01-07 14:00:00 10.8 36 Norte 57 Norte 0 1000.1 -1.4 75
2018-01-07 13:00:00 11.1 29 Norte 53 Nordeste 0 1000.8 -0.3 71
2018-01-07 12:00:00 10.4 22 Nordeste 38 Nordeste 0 1001 0.3 76
2018-01-07 11:00:00 8.3 12 Nordeste 30 Este 2 1001.5 0.8 86
2018-01-07 10:00:00 7.7 8 Este 45 Nordeste 0 1001.1 0.7 85
2018-01-07 09:00:00 8.9 30 Nordeste 51 Nordeste 0 1000.7 0.2 80
2018-01-07 08:00:00 9.1 26 Nordeste 55 Norte 0.4 1000.7 -0.1 80
2018-01-07 07:00:00 9.1 31 Norte 52 Norte 0 1000.4 -0.5 79
2018-01-07 06:00:00 9.4 28 Norte 57 Norte 0.4 1000.5 -0.2 78
2018-01-07 05:00:00 8 6 Nordeste 36 Nordeste 0 1000.8 -0.1 83
2018-01-07 04:00:00 7.3 6 Este 23 Nordeste 0.2 1000.9 -0.2 86
2018-01-07 03:00:00 7.8 19 Nordeste 31 Nordeste 0 1000.7 -0.9 82
2018-01-07 02:00:00 6.8 7 Nordeste 14 Nordeste 0.4 1000.9 -0.4 91
2018-01-07 01:00:00 6.7 4 Nordeste 9 Noroeste 0.2 1001.1 0.1 89
2018-01-07 00:00:00 6.8 6 Noroeste 11 Sudeste 0.8 1001.6 1.2 89
2018-01-06 23:00:00 7 6 Sur 16 Sudeste 0.2 1001.3 1 85
2018-01-06 22:00:00 7.6 8 Este 42 Este 0.8 1001 1.2 85
2018-01-06 21:00:00 8.1 6 Norte 24 Noroeste 1.2 1000.4 0.9 83
2018-01-06 20:00:00 8.4 9 Norte 17 Noroeste 0 1000.3 1.2 75
2018-01-06 19:00:00 8.5 7 Nordeste 11 Norte 0 999.8 0.8 77
2018-01-06 18:00:00 8.6 5 Norte 12 Noroeste 0 999.5 0.8 77
2018-01-06 17:00:00 9 2 Norte 12 Nordeste 0 999.1 0 77
2018-01-06 16:00:00 9.5 9 Nordeste 17 Norte 0 999 -0.8 76
2018-01-06 15:00:00 10.2 14 Oeste 21 Oeste 0 998.7 -1.1 72
2018-01-06 14:00:00 9.5 4 Noroeste 16 Oeste 0 999.1 -0.5 75
2018-01-06 13:00:00 9.1 6 Oeste 19 Oeste 0 999.8 0.3 75
2018-01-06 12:00:00 6.3 6 Sudoeste 13 Sudoeste 0 999.8 1.2 89
2018-01-06 11:00:00 5.2 6 Sur 14 Sudeste 1.2 999.6 1.1 93
2018-01-06 10:00:00 4.9 5 Nordeste 18 Sur 0.2 999.5 1.7 92
2018-01-06 09:00:00 4.1 12 Sur 18 Sur 0 998.6 0.6 92
2018-01-06 08:00:00 4.4 13 Sudeste 18 Sudeste 0.2 998.5 0 92
2018-01-06 07:00:00 4.9 12 Sudeste 23 Sudeste 0.4 997.8 -0.7 88
2018-01-06 06:00:00 5.1 13 Sudeste 21 Sudeste 0.2 998 -0.2 90
2018-01-06 05:00:00 5.8 13 Sudeste 31 Noroeste 0.4 998.5 -0.1 85
2018-01-06 04:00:00 6.4 15 Oeste 49 Noroeste 0.8 998.5 -1 79
2018-01-06 03:00:00 6.6 12 Sudoeste 23 Sudoeste 0 998.2 -1.6 74
2018-01-06 02:00:00 6.6 20 Sudoeste 30 Sudoeste 0 998.6 -1.4 75
2018-01-06 01:00:00 6.5 13 Sudoeste 28 Sudoeste 0 999.5 -0.6 75
2018-01-06 00:00:00 6.7 17 Sudoeste 25 Sudoeste 0 999.8 -0.8 75
2018-01-05 23:00:00 7.2 11 Sudoeste 27 Sudoeste 0 1000 -0.4 77
2018-01-05 22:00:00 7.2 9 Sudoeste 39 Oeste 0.4 1000.1 -0.3 74
2018-01-05 21:00:00 7.6 11 Sudoeste 27 Oeste 0 1000.6 -0.1 78
2018-01-05 20:00:00 8.1 14 Oeste 40 Sudoeste 0 1000.4 -0.5 78
2018-01-05 19:00:00 8.3 14 Sudoeste 30 Sudoeste 0 1000.4 -0.8 73
2018-01-05 18:00:00 8.7 21 Sudoeste 31 Sudoeste 0 1000.7 -0.8 72
2018-01-05 17:00:00 9.8 24 Sudoeste 43 Oeste 0 1000.9 -0.9 60
2018-01-05 16:00:00 9.9 20 Oeste 41 Sudoeste 0 1001.2 -1.4 69
2018-01-05 15:00:00 10.7 25 Oeste 44 Oeste 0 1001.5 -1.7 74
2018-01-05 14:00:00 11 21 Oeste 39 Oeste 0.4 1001.8 -1.2 67
2018-01-05 13:00:00 11.2 19 Sudoeste 41 Oeste 0 1002.6 0 73
2018-01-05 12:00:00 10.9 21 Oeste 47 Oeste 0 1003.2 0.6 74
2018-01-05 11:00:00 10.7 17 Oeste 54 Oeste 0.2 1003 0.8 75
2018-01-05 10:00:00 10.7 19 Oeste 42 Oeste 0.8 1002.6 0.3 81
2018-01-05 09:00:00 10.7 18 Oeste 35 Noroeste 0.4 1002.6 0.3 93
2018-01-05 08:00:00 10.6 14 Sudoeste 28 Oeste 2.4 1002.2 -0.7 95
2018-01-05 07:00:00 10.9 14 Sudoeste 24 Sudoeste 0.8 1002.3 -1.5 91
2018-01-05 06:00:00 11 7 Sur 32 Sudoeste 0.6 1002.3 -0.6 90
2018-01-05 05:00:00 10.9 15 Sudoeste 33 Oeste 2.6 1002.9 -0.6 93
2018-01-05 04:00:00 11.1 23 Oeste 50 Oeste 6.2 1003.8 0.3 93
2018-01-05 03:00:00 12.3 21 Sudoeste 52 Oeste 7 1002.9 -2.1 91
2018-01-05 02:00:00 14.5 28 Sudoeste 58 Sudoeste 2.2 1003.5 -2.6 87
2018-01-05 01:00:00 14.5 22 Sudoeste 44 Sudoeste 0.8 1003.5 -3.5 88
2018-01-05 00:00:00 14.7 20 Sudoeste 51 Sudoeste 0.8 1005 -2.8 89
2018-01-04 23:00:00 15.5 29 Sudoeste 60 Sudoeste 0 1006.1 -3.2 83
2018-01-04 22:00:00 15.5 26 Sudoeste 58 Sudoeste 0 1007 -2.8 82
2018-01-04 21:00:00 15.4 23 Sudoeste 53 Sudoeste 0 1007.8 -2.6 82
2018-01-04 20:00:00 15.3 26 Sudoeste 55 Sudoeste 0 1009.3 -1.4 84
2018-01-04 19:00:00 15 26 Sudoeste 54 Sudoeste 0 1009.8 -2 86
2018-01-04 18:00:00 15.3 20 Sudoeste 57 Sudoeste 0 1010.4 -1.7 84
2018-01-04 17:00:00 15.2 34 Sudoeste 60 Sudoeste 0 1010.7 -2.6 85
2018-01-04 16:00:00 15.7 28 Sudoeste 53 Sudoeste 0 1011.8 -2.5 83
2018-01-04 15:00:00 16.4 31 Sudoeste 59 Sudoeste 0 1012.1 -3.2 77
2018-01-04 14:00:00 16.4 25 Sudoeste 60 Sudoeste 0 1013.3 -2.2 75
2018-01-04 13:00:00 16.4 33 Sudoeste 61 Sudoeste 0 1014.3 -1.3 73
2018-01-04 12:00:00 16.6 31 Sudoeste 55 Sudoeste 0 1015.3 -0.9 71
2018-01-04 11:00:00 16 29 Sudoeste 53 Sudoeste 0 1015.5 -0.5 75
2018-01-04 10:00:00 15.1 25 Sudoeste 46 Sudoeste 0 1015.6 -0.8 79
2018-01-04 09:00:00 15.7 23 Sudoeste 58 Sudoeste 0 1016.2 -0.6 81
2018-01-04 08:00:00 15.9 24 Sudoeste 55 Sudoeste 0 1016 -1.2 75
2018-01-04 07:00:00 15.9 26 Sudoeste 51 Sudoeste 0 1016.4 -1.3 79
2018-01-04 06:00:00 16 22 Sudoeste 44 Sudoeste 0 1016.8 -1 80
2018-01-04 05:00:00 16.2 18 Sudoeste 44 Sudoeste 0 1017.2 -1.5 82
2018-01-04 04:00:00 16.1 25 Sudoeste 44 Sudoeste 0 1017.7 -1.9 84
2018-01-04 03:00:00 15.8 27 Sudoeste 45 Sudoeste 0 1017.8 -2.5 84
2018-01-04 02:00:00 15.5 23 Sudoeste 36 Sudoeste 0 1018.7 -1.9 87
2018-01-04 01:00:00 15.3 23 Sudoeste 42 Sudoeste 0 1019.6 -1.3 89
2018-01-04 00:00:00 15.2 11 Sudoeste 34 Sudoeste 0 1020.3 -0.7 93
2018-01-03 23:00:00 15.6 16 Sudoeste 55 Sudoeste 0 1020.6 -0.3 88
2018-01-03 22:00:00 15.4 18 Sudoeste 36 Sudoeste 0.2 1020.9 0.1 90
2018-01-03 21:00:00 15.9 19 Sudoeste 43 Sudoeste 0 1021 0.4 87
2018-01-03 20:00:00 16.3 21 Sudoeste 40 Sudoeste 0 1020.9 0 87
2018-01-03 19:00:00 16.5 22 Sudoeste 44 Sudoeste 0 1020.8 -0.1 88
2018-01-03 18:00:00 16.6 23 Sudoeste 43 Sudoeste 0 1020.6 -0.7 89
2018-01-03 17:00:00 16.6 21 Sudoeste 44 Sudoeste 0 1020.9 -0.6 90
2018-01-03 16:00:00 16.4 20 Sudoeste 42 Oeste 0.2 1020.9 -1.6 93
2018-01-03 15:00:00 17 18 Sudoeste 46 Sudoeste 0.2 1021.3 -1.4 89
2018-01-03 14:00:00 16 19 Sudoeste 28 Sur 0 1021.5 -1.1 97
2018-01-03 13:00:00 15.7 17 Oeste 32 Sudoeste 0 1022.5 0.4 95
2018-01-03 12:00:00 15.5 13 Sudoeste 32 Oeste 0 1022.7 0.7 97
2018-01-03 11:00:00 15.3 17 Oeste 35 Oeste 0.2 1022.6 1.2 98
2018-01-03 10:00:00 15.4 16 Sudoeste 32 Sudoeste 0.8 1022.1 1 98
2018-01-03 09:00:00 15.4 14 Sudoeste 32 Sur 0.4 1022 1.1 98
2018-01-03 08:00:00 15.4 14 Sudoeste 38 Oeste 0.8 1021.4 0.5 98
2018-01-03 07:00:00 15.4 13 Sudoeste 35 Sudoeste 0.8 1021.1 0.1 97
2018-01-03 06:00:00 15.5 18 Sudoeste 35 Sudoeste 0 1020.9 0.3 96
2018-01-03 05:00:00 15.6 16 Sudoeste 40 Sudoeste 0.2 1020.9 -0.6 95
2018-01-03 04:00:00 16 21 Sudoeste 39 Sudoeste 0 1021 -0.1 92
2018-01-03 03:00:00 16 28 Sudoeste 49 Sudoeste 0 1020.6 -0.2 91
2018-01-03 02:00:00 15.8 18 Sudoeste 48 Sudoeste 0 1021.5 0.5 93
2018-01-03 01:00:00 16.2 23 Sudoeste 46 Sudoeste 0 1021.1 0.8 91
2018-01-03 00:00:00 16.1 23 Sudoeste 43 Oeste 0.2 1020.8 0.5 94
2018-01-02 23:00:00 16.3 24 Sudoeste 42 Sudoeste 0 1021 0.5 91
2018-01-02 22:00:00 16.4 24 Sudoeste 45 Sudoeste 0 1020.3 -0.1 92
2018-01-02 21:00:00 16.3 22 Sudoeste 38 Sudoeste 0 1020.3 0 93
2018-01-02 20:00:00 16.1 23 Sudoeste 40 Sudoeste 0 1020.5 0.3 95
2018-01-02 19:00:00 16.2 18 Sudoeste 38 Sudoeste 0 1020.4 0.3 94
2018-01-02 18:00:00 16.2 18 Sudoeste 43 Sudoeste 0 1020.3 0.4 94
2018-01-02 17:00:00 15.8 21 Sudoeste 35 Sudoeste 0 1020.2 0.4 96
2018-01-02 16:00:00 15.8 17 Sudoeste 36 Sudoeste 0.4 1020.1 -0.3 96
2018-01-02 15:00:00 16.4 23 Sudoeste 38 Sudoeste 0 1019.9 -1.1 93
2018-01-02 14:00:00 16.4 15 Sudoeste 38 Sudoeste 0 1019.8 -0.6 94
2018-01-02 13:00:00 16.4 23 Sudoeste 47 Sudoeste 0 1020.4 0.2 94
2018-01-02 12:00:00 16 23 Sudoeste 47 Sudoeste 0 1021 1.3 95
2018-01-02 11:00:00 15.9 24 Sudoeste 48 Sudoeste 0 1020.4 1.3 96
2018-01-02 10:00:00 15.6 18 Sudoeste 44 Sudoeste 0 1020.2 1.7 95
2018-01-02 09:00:00 15.2 22 Sudoeste 39 Sudoeste 0.6 1019.7 0.9 95
2018-01-02 08:00:00 14.8 23 Sudoeste 42 Sudoeste 0.6 1019.1 -0.3 94
2018-01-02 07:00:00 14.7 22 Sudoeste 47 Sudoeste 0.8 1018.5 -1.5 93
2018-01-02 06:00:00 14.4 26 Sudoeste 48 Sudoeste 0.4 1018.8 -1.4 91
2018-01-02 05:00:00 14.4 21 Sudoeste 44 Sudoeste 0.4 1019.4 -0.9 90
2018-01-02 04:00:00 14.9 22 Sudoeste 41 Sudoeste 0 1020 -0.8 85
2018-01-02 03:00:00 15.1 23 Sudoeste 45 Sudoeste 0 1020.2 -1 81
2018-01-02 02:00:00 14.9 22 Sudoeste 46 Sudoeste 0 1020.3 -0.9 79
2018-01-02 01:00:00 15 21 Sudoeste 48 Sudoeste 0 1020.8 -0.3 79
2018-01-02 00:00:00 14.6 25 Sudoeste 50 Sudoeste 0 1021.2 0.1 81
2018-01-01 23:00:00 14.4 23 Sudoeste 45 Sudoeste 0 1021.2 0.4 81
2018-01-01 22:00:00 14.3 21 Sudoeste 44 Sudoeste 0 1021.1 0.6 80
2018-01-01 21:00:00 14 17 Sudoeste 42 Sudoeste 0 1021.1 0.8 85
2018-01-01 20:00:00 14.1 21 Sudoeste 44 Sudoeste 0 1020.8 0.7 88
2018-01-01 19:00:00 13.7 22 Sudoeste 49 Sudoeste 0.2 1020.5 0.8 93
2018-01-01 18:00:00 14.1 24 Sudoeste 50 Sudoeste 0 1020.3 1 89
2018-01-01 17:00:00 13.8 24 Sudoeste 49 Sudoeste 0.2 1020.1 0.6 92
2018-01-01 16:00:00 14.3 27 Sudoeste 49 Sudoeste 0 1019.7 -0.1 89
2018-01-01 15:00:00 14.9 30 Sudoeste 59 Sudoeste 0 1019.3 0.2 84
2018-01-01 14:00:00 15.1 37 Sudoeste 69 Sudoeste 0 1019.5 0.8 81
2018-01-01 13:00:00 14.7 36 Sudoeste 66 Sudoeste 0 1019.8 1.2 83
2018-01-01 12:00:00 13.9 32 Sudoeste 56 Oeste 0.2 1019.1 1.3 88
2018-01-01 11:00:00 13.9 32 Sudoeste 65 Oeste 0 1018.7 1 84
2018-01-01 10:00:00 13.9 33 Sudoeste 62 Sudoeste 0 1018.6 0.3 80
2018-01-01 09:00:00 13.4 35 Sudoeste 66 Sudoeste 0 1017.8 -0.3 81
2018-01-01 08:00:00 13.8 36 Sudoeste 68 Sudoeste 0 1017.7 -0.6 74
2018-01-01 07:00:00 13.6 28 Sudoeste 56 Oeste 0 1018.3 -0.9 75
2018-01-01 06:00:00 13.5 29 Sudoeste 54 Sur 0 1018.1 -1.4 73
2018-01-01 05:00:00 13.1 28 Sudoeste 58 Sudoeste 0 1018.3 -1.5 71
2018-01-01 04:00:00 12.7 22 Sudoeste 45 Sudoeste 0 1019.2 -0.8 73
2018-01-01 03:00:00 12.4 17 Sudoeste 41 Sudoeste 0 1019.5 0 75
2018-01-01 02:00:00 12.3 16 Sudoeste 38 Sudoeste 0 1019.8 0.1 76
2018-01-01 01:00:00 12.2 19 Sudoeste 32 Sudoeste 0 1020 0.9 78
2018-01-01 00:00:00 11.6 13 Sur 36 Sudoeste 0 1019.5 0.8 79
2017-12-31 23:00:00 11.9 20 Sudoeste 38 Sudoeste 0 1019.7 1.8 76
2017-12-31 22:00:00 11.9 18 Sudoeste 41 Sudoeste 0 1019.1 1.8 73
2017-12-31 21:00:00 12 22 Sudoeste 48 Sudoeste 0 1018.7 2.6 66
2017-12-31 20:00:00 12.4 17 Sudoeste 49 Sudoeste 0 1017.9 3 69
2017-12-31 19:00:00 12.6 24 Oeste 65 Oeste 0 1017.3 3.5 63
2017-12-31 18:00:00 12.4 35 Oeste 59 Oeste 0.2 1016.1 2 65
2017-12-31 17:00:00 12.3 23 Oeste 54 Oeste 0 1014.9 3 66
2017-12-31 16:00:00 10.3 21 Sudoeste 46 Sudoeste 0 1013.8 2.7 78
2017-12-31 15:00:00 9.1 26 Sudoeste 89 Oeste 0.6 1014.1 4 83
2017-12-31 14:00:00 14.2 25 Oeste 50 Oeste 0 1011.9 3.2 69
2017-12-31 13:00:00 13.5 25 Oeste 42 Sudoeste 0 1011.1 3.3 76
2017-12-31 12:00:00 12 26 Sudoeste 60 Sudoeste 0.2 1010.1 3.2 78
2017-12-31 11:00:00 11.3 24 Sudoeste 66 Sudoeste 2.4 1008.7 3.5 83
2017-12-31 10:00:00 11.6 25 Sudoeste 52 Oeste 4.6 1007.8 2.3 90
2017-12-31 09:00:00 11.8 22 Sudoeste 56 Sudoeste 9 1006.9 0.2 91
2017-12-31 08:00:00 15.2 26 Sudoeste 61 Sur 0 1005.2 -2.4 75
2017-12-31 07:00:00 14.8 22 Sur 52 Sur 0 1005.5 -3.2 75
2017-12-31 06:00:00 15 22 Sur 48 Sur 0 1006.7 -2.3 75
2017-12-31 05:00:00 15.6 20 Sur 55 Sudoeste 0 1007.6 -2.6 73
2017-12-31 04:00:00 15.6 22 Sur 51 Sur 0 1008.7 -2.8 74
2017-12-31 03:00:00 15.4 23 Sudoeste 50 Sudoeste 0 1009 -2.9 76
2017-12-31 02:00:00 15.6 26 Sudoeste 53 Sudoeste 0 1010.2 -2 75
2017-12-31 01:00:00 15.4 17 Sudoeste 50 Sudoeste 0 1011.5 -1.3 78